Terminal Aerodrome Forecast
Issued by NWS Cleveland, OH

Home | Current Version | Previous Version | Text Only | Print | Product List | Glossary Off
Versions: 1 2 3 4 5 6 7 8 9 10 11 12 13 14 15 16 17 18 19 20

000
FTUS41 KCLE 201739
TAFCAK
TAF
KCAK 201739Z 2018/2118 33006KT P6SM OVC019
     FM201930 36006KT P6SM SCT019 BKN025
     FM202200 34007KT P6SM BKN040
     FM210700 03004KT 6SM BR BKN090
     FM211000 09005KT P6SM BKN060=

USA.gov is the U.S. government's official web portal to all federal, state and local government web resources and services.